sensor_id;sensor_type;location;lat;lon;timestamp;temperature;humidity
19906;DHT22;10115;50.906;4.438;2024-02-15T00:02:14;13.50;99.90
19906;DHT22;10115;50.906;4.438;2024-02-15T00:04:40;13.50;99.90
19906;DHT22;10115;50.906;4.438;2024-02-15T00:07:06;13.50;99.90
19906;DHT22;10115;50.906;4.438;2024-02-15T00:09:31;13.50;99.90
19906;DHT22;10115;50.906;4.438;2024-02-15T00:11:57;13.50;99.90
19906;DHT22;10115;50.906;4.438;2024-02-15T00:14:26;13.50;99.90
19906;DHT22;10115;50.906;4.438;2024-02-15T00:16:53;13.40;99.90
19906;DHT22;10115;50.906;4.438;2024-02-15T00:19:18;13.50;99.90
19906;DHT22;10115;50.906;4.438;2024-02-15T00:21:44;13.70;99.90
19906;DHT22;10115;50.906;4.438;2024-02-15T00:24:10;13.80;99.90
19906;DHT22;10115;50.906;4.438;2024-02-15T00:26:35;13.70;99.90
19906;DHT22;10115;50.906;4.438;2024-02-15T00:29:01;13.70;99.90
19906;DHT22;10115;50.906;4.438;2024-02-15T00:31:27;13.70;99.90
19906;DHT22;10115;50.906;4.438;2024-02-15T00:33:52;13.70;99.90
19906;DHT22;10115;50.906;4.438;2024-02-15T00:36:19;13.70;99.90
19906;DHT22;10115;50.906;4.438;2024-02-15T00:38:45;13.80;99.90
19906;DHT22;10115;50.906;4.438;2024-02-15T00:41:11;13.80;99.90
19906;DHT22;10115;50.906;4.438;2024-02-15T00:43:37;13.70;99.90
19906;DHT22;10115;50.906;4.438;2024-02-15T00:46:03;13.70;99.90
19906;DHT22;10115;50.906;4.438;2024-02-15T00:48:29;13.60;99.90
19906;DHT22;10115;50.906;4.438;2024-02-15T00:50:56;13.60;99.90
19906;DHT22;10115;50.906;4.438;2024-02-15T00:53:22;13.60;99.90
19906;DHT22;10115;50.906;4.438;2024-02-15T00:55:47;13.60;99.90
19906;DHT22;10115;50.906;4.438;2024-02-15T00:58:13;13.70;99.90
19906;DHT22;10115;50.906;4.438;2024-02-15T01:00:39;13.60;99.90
19906;DHT22;10115;50.906;4.438;2024-02-15T01:03:04;13.60;99.90
19906;DHT22;10115;50.906;4.438;2024-02-15T01:05:30;13.60;99.90
19906;DHT22;10115;50.906;4.438;2024-02-15T01:07:56;13.50;99.90
19906;DHT22;10115;50.906;4.438;2024-02-15T01:10:22;13.50;99.90
19906;DHT22;10115;50.906;4.438;2024-02-15T01:12:50;13.50;99.90
19906;DHT22;10115;50.906;4.438;2024-02-15T01:15:15;13.50;99.90
19906;DHT22;10115;50.906;4.438;2024-02-15T01:17:45;13.50;99.90
19906;DHT22;10115;50.906;4.438;2024-02-15T01:20:11;13.70;99.90
19906;DHT22;10115;50.906;4.438;2024-02-15T01:22:37;13.60;99.90
19906;DHT22;10115;50.906;4.438;2024-02-15T01:25:02;13.60;99.90
19906;DHT22;10115;50.906;4.438;2024-02-15T01:27:28;13.60;99.90
19906;DHT22;10115;50.906;4.438;2024-02-15T01:29:57;13.70;99.90
19906;DHT22;10115;50.906;4.438;2024-02-15T01:32:23;13.70;99.90
19906;DHT22;10115;50.906;4.438;2024-02-15T01:34:48;13.80;99.90
19906;DHT22;10115;50.906;4.438;2024-02-15T01:37:16;13.90;99.90
19906;DHT22;10115;50.906;4.438;2024-02-15T01:39:42;13.90;99.90
19906;DHT22;10115;50.906;4.438;2024-02-15T01:42:08;13.80;99.90
19906;DHT22;10115;50.906;4.438;2024-02-15T01:44:34;13.70;99.90
19906;DHT22;10115;50.906;4.438;2024-02-15T01:47:02;13.70;99.90
19906;DHT22;10115;50.906;4.438;2024-02-15T01:49:29;13.80;99.90
19906;DHT22;10115;50.906;4.438;2024-02-15T01:51:56;13.70;99.90
19906;DHT22;10115;50.906;4.438;2024-02-15T01:54:22;13.70;99.90
19906;DHT22;10115;50.906;4.438;2024-02-15T01:56:49;13.70;99.90
19906;DHT22;10115;50.906;4.438;2024-02-15T01:59:15;13.60;99.90
19906;DHT22;10115;50.906;4.438;2024-02-15T02:01:42;13.50;99.90
19906;DHT22;10115;50.906;4.438;2024-02-15T02:04:08;13.50;99.90
19906;DHT22;10115;50.906;4.438;2024-02-15T02:06:34;13.60;99.90
19906;DHT22;10115;50.906;4.438;2024-02-15T02:09:03;13.50;99.90
19906;DHT22;10115;50.906;4.438;2024-02-15T02:11:28;13.60;99.90
19906;DHT22;10115;50.906;4.438;2024-02-15T02:13:55;13.60;99.90
19906;DHT22;10115;50.906;4.438;2024-02-15T02:16:28;13.60;99.90
19906;DHT22;10115;50.906;4.438;2024-02-15T02:18:58;13.70;99.90
19906;DHT22;10115;50.906;4.438;2024-02-15T02:21:25;13.70;99.90
19906;DHT22;10115;50.906;4.438;2024-02-15T02:23:58;13.60;99.90
19906;DHT22;10115;50.906;4.438;2024-02-15T02:26:25;13.60;99.90
19906;DHT22;10115;50.906;4.438;2024-02-15T02:28:51;13.60;99.90
19906;DHT22;10115;50.906;4.438;2024-02-15T02:31:20;13.60;99.90
19906;DHT22;10115;50.906;4.438;2024-02-15T02:33:52;13.60;99.90
19906;DHT22;10115;50.906;4.438;2024-02-15T02:36:19;13.60;99.90
19906;DHT22;10115;50.906;4.438;2024-02-15T02:38:45;13.60;99.90
19906;DHT22;10115;50.906;4.438;2024-02-15T02:41:11;13.60;99.90
19906;DHT22;10115;50.906;4.438;2024-02-15T02:43:39;13.60;99.90
19906;DHT22;10115;50.906;4.438;2024-02-15T02:46:06;13.60;99.90
19906;DHT22;10115;50.906;4.438;2024-02-15T02:48:32;13.70;99.90
19906;DHT22;10115;50.906;4.438;2024-02-15T02:50:57;13.60;99.90
19906;DHT22;10115;50.906;4.438;2024-02-15T02:53:24;13.60;99.90
19906;DHT22;10115;50.906;4.438;2024-02-15T02:55:51;13.70;99.90
19906;DHT22;10115;50.906;4.438;2024-02-15T02:58:17;13.60;99.90
19906;DHT22;10115;50.906;4.438;2024-02-15T03:00:42;13.50;99.90
19906;DHT22;10115;50.906;4.438;2024-02-15T03:03:08;13.50;99.90
19906;DHT22;10115;50.906;4.438;2024-02-15T03:05:35;13.50;99.90
19906;DHT22;10115;50.906;4.438;2024-02-15T03:08:00;13.40;99.90
19906;DHT22;10115;50.906;4.438;2024-02-15T03:10:26;13.50;99.90
19906;DHT22;10115;50.906;4.438;2024-02-15T03:12:52;13.50;99.90
19906;DHT22;10115;50.906;4.438;2024-02-15T03:15:18;13.40;99.90
19906;DHT22;10115;50.906;4.438;2024-02-15T03:17:46;13.40;99.90
19906;DHT22;10115;50.906;4.438;2024-02-15T03:20:12;13.30;99.90
19906;DHT22;10115;50.906;4.438;2024-02-15T03:23:01;13.30;99.90
19906;DHT22;10115;50.906;4.438;2024-02-15T03:25:28;13.30;99.90
19906;DHT22;10115;50.906;4.438;2024-02-15T03:27:56;13.30;99.90
19906;DHT22;10115;50.906;4.438;2024-02-15T03:30:24;13.30;99.90
19906;DHT22;10115;50.906;4.438;2024-02-15T03:32:50;13.20;99.90
19906;DHT22;10115;50.906;4.438;2024-02-15T03:35:20;13.20;99.90
19906;DHT22;10115;50.906;4.438;2024-02-15T03:37:48;13.10;99.90
19906;DHT22;10115;50.906;4.438;2024-02-15T03:40:17;13.00;99.90
19906;DHT22;10115;50.906;4.438;2024-02-15T03:42:43;12.90;99.90
19906;DHT22;10115;50.906;4.438;2024-02-15T03:45:08;12.90;99.90
19906;DHT22;10115;50.906;4.438;2024-02-15T03:47:35;12.90;99.90
19906;DHT22;10115;50.906;4.438;2024-02-15T03:50:05;12.90;99.90
19906;DHT22;10115;50.906;4.438;2024-02-15T03:52:31;12.80;99.90
19906;DHT22;10115;50.906;4.438;2024-02-15T03:54:58;12.80;99.90
19906;DHT22;10115;50.906;4.438;2024-02-15T03:57:27;12.80;99.90
19906;DHT22;10115;50.906;4.438;2024-02-15T03:59:54;12.80;99.90
19906;DHT22;10115;50.906;4.438;2024-02-15T04:02:22;12.90;99.90
19906;DHT22;10115;50.906;4.438;2024-02-15T04:04:49;12.90;99.90
19906;DHT22;10115;50.906;4.438;2024-02-15T04:07:18;12.80;99.90
19906;DHT22;10115;50.906;4.438;2024-02-15T04:09:50;12.80;99.90
19906;DHT22;10115;50.906;4.438;2024-02-15T04:12:16;12.80;99.90
19906;DHT22;10115;50.906;4.438;2024-02-15T04:14:45;12.80;99.90
19906;DHT22;10115;50.906;4.438;2024-02-15T04:17:11;12.80;99.90
19906;DHT22;10115;50.906;4.438;2024-02-15T04:19:43;12.70;99.90
19906;DHT22;10115;50.906;4.438;2024-02-15T04:22:09;12.70;99.90
19906;DHT22;10115;50.906;4.438;2024-02-15T04:24:36;12.60;99.90
19906;DHT22;10115;50.906;4.438;2024-02-15T04:27:05;12.60;99.90
19906;DHT22;10115;50.906;4.438;2024-02-15T04:29:33;12.60;99.90
19906;DHT22;10115;50.906;4.438;2024-02-15T04:31:59;12.50;99.90
19906;DHT22;10115;50.906;4.438;2024-02-15T04:34:25;12.40;99.90
19906;DHT22;10115;50.906;4.438;2024-02-15T04:36:51;12.40;99.90
19906;DHT22;10115;50.906;4.438;2024-02-15T04:39:21;12.40;99.90
19906;DHT22;10115;50.906;4.438;2024-02-15T04:41:51;12.40;99.90
19906;DHT22;10115;50.906;4.438;2024-02-15T04:44:17;12.30;99.90
19906;DHT22;10115;50.906;4.438;2024-02-15T04:46:46;12.30;99.90
19906;DHT22;10115;50.906;4.438;2024-02-15T04:49:12;12.40;99.90
19906;DHT22;10115;50.906;4.438;2024-02-15T04:51:38;12.40;99.90
19906;DHT22;10115;50.906;4.438;2024-02-15T04:54:06;12.40;99.90
19906;DHT22;10115;50.906;4.438;2024-02-15T04:56:33;12.50;99.90
19906;DHT22;10115;50.906;4.438;2024-02-15T04:58:58;12.50;99.90
19906;DHT22;10115;50.906;4.438;2024-02-15T05:01:24;12.50;99.90
19906;DHT22;10115;50.906;4.438;2024-02-15T05:03:50;12.60;99.90
19906;DHT22;10115;50.906;4.438;2024-02-15T05:06:15;12.60;99.90
19906;DHT22;10115;50.906;4.438;2024-02-15T05:08:41;12.60;99.90
19906;DHT22;10115;50.906;4.438;2024-02-15T05:11:11;12.80;99.90
19906;DHT22;10115;50.906;4.438;2024-02-15T05:13:48;12.80;99.90
19906;DHT22;10115;50.906;4.438;2024-02-15T05:16:17;12.70;99.90
19906;DHT22;10115;50.906;4.438;2024-02-15T05:18:42;12.80;99.90
19906;DHT22;10115;50.906;4.438;2024-02-15T05:21:08;12.80;99.90
19906;DHT22;10115;50.906;4.438;2024-02-15T05:23:37;12.80;99.90
19906;DHT22;10115;50.906;4.438;2024-02-15T05:26:06;12.70;99.90
19906;DHT22;10115;50.906;4.438;2024-02-15T05:28:32;12.80;99.90
19906;DHT22;10115;50.906;4.438;2024-02-15T05:33:45;12.70;99.90
19906;DHT22;10115;50.906;4.438;2024-02-15T05:36:17;12.70;99.90
19906;DHT22;10115;50.906;4.438;2024-02-15T05:38:47;12.70;99.90
19906;DHT22;10115;50.906;4.438;2024-02-15T05:41:13;12.70;99.90
19906;DHT22;10115;50.906;4.438;2024-02-15T05:43:39;12.80;99.90
19906;DHT22;10115;50.906;4.438;2024-02-15T05:46:07;12.70;99.90
19906;DHT22;10115;50.906;4.438;2024-02-15T05:48:33;12.80;99.90
19906;DHT22;10115;50.906;4.438;2024-02-15T05:51:06;12.70;99.90
19906;DHT22;10115;50.906;4.438;2024-02-15T05:53:33;12.60;99.90
19906;DHT22;10115;50.906;4.438;2024-02-15T05:56:03;12.70;99.90
19906;DHT22;10115;50.906;4.438;2024-02-15T05:58:46;12.90;99.90
19906;DHT22;10115;50.906;4.438;2024-02-15T06:01:12;13.00;99.90
19906;DHT22;10115;50.906;4.438;2024-02-15T06:03:39;13.10;99.90
19906;DHT22;10115;50.906;4.438;2024-02-15T06:06:06;13.00;99.90
19906;DHT22;10115;50.906;4.438;2024-02-15T06:08:36;13.00;99.90
19906;DHT22;10115;50.906;4.438;2024-02-15T06:11:02;13.10;99.90
19906;DHT22;10115;50.906;4.438;2024-02-15T06:13:29;13.20;99.90
19906;DHT22;10115;50.906;4.438;2024-02-15T06:15:55;13.20;99.90
19906;DHT22;10115;50.906;4.438;2024-02-15T06:18:23;13.10;99.90
19906;DHT22;10115;50.906;4.438;2024-02-15T06:20:55;13.20;99.90
19906;DHT22;10115;50.906;4.438;2024-02-15T06:23:23;13.10;99.90
19906;DHT22;10115;50.906;4.438;2024-02-15T06:25:52;13.30;99.90
19906;DHT22;10115;50.906;4.438;2024-02-15T06:28:22;13.40;99.90
19906;DHT22;10115;50.906;4.438;2024-02-15T06:31:10;13.40;99.90
19906;DHT22;10115;50.906;4.438;2024-02-15T06:33:55;13.40;99.90
19906;DHT22;10115;50.906;4.438;2024-02-15T06:36:47;13.20;99.90
19906;DHT22;10115;50.906;4.438;2024-02-15T06:39:31;13.30;99.90
19906;DHT22;10115;50.906;4.438;2024-02-15T06:42:04;13.30;99.90
19906;DHT22;10115;50.906;4.438;2024-02-15T06:44:30;13.20;99.90
19906;DHT22;10115;50.906;4.438;2024-02-15T06:46:55;13.10;99.90
19906;DHT22;10115;50.906;4.438;2024-02-15T06:49:23;13.10;99.90
19906;DHT22;10115;50.906;4.438;2024-02-15T06:51:50;13.20;99.90
19906;DHT22;10115;50.906;4.438;2024-02-15T06:54:16;13.20;99.90
19906;DHT22;10115;50.906;4.438;2024-02-15T06:56:44;13.20;99.90
19906;DHT22;10115;50.906;4.438;2024-02-15T06:59:12;13.20;99.90
19906;DHT22;10115;50.906;4.438;2024-02-15T07:01:42;13.30;99.90
19906;DHT22;10115;50.906;4.438;2024-02-15T07:04:08;13.30;99.90
19906;DHT22;10115;50.906;4.438;2024-02-15T07:06:37;13.30;99.90
19906;DHT22;10115;50.906;4.438;2024-02-15T07:09:04;13.20;99.90
19906;DHT22;10115;50.906;4.438;2024-02-15T07:11:32;13.20;99.90
19906;DHT22;10115;50.906;4.438;2024-02-15T07:14:00;13.20;99.90
19906;DHT22;10115;50.906;4.438;2024-02-15T07:16:26;13.20;99.90
19906;DHT22;10115;50.906;4.438;2024-02-15T07:18:52;13.30;99.90
19906;DHT22;10115;50.906;4.438;2024-02-15T07:21:19;13.40;99.90
19906;DHT22;10115;50.906;4.438;2024-02-15T07:23:50;13.40;99.90
19906;DHT22;10115;50.906;4.438;2024-02-15T07:26:17;13.40;99.90
19906;DHT22;10115;50.906;4.438;2024-02-15T07:28:45;13.40;99.90
19906;DHT22;10115;50.906;4.438;2024-02-15T07:31:11;13.40;99.90
19906;DHT22;10115;50.906;4.438;2024-02-15T07:33:37;13.30;99.90
19906;DHT22;10115;50.906;4.438;2024-02-15T07:36:04;13.40;99.90
19906;DHT22;10115;50.906;4.438;2024-02-15T07:38:30;13.50;99.90
19906;DHT22;10115;50.906;4.438;2024-02-15T07:40:59;13.50;99.90
19906;DHT22;10115;50.906;4.438;2024-02-15T07:43:25;13.60;99.90
19906;DHT22;10115;50.906;4.438;2024-02-15T07:45:52;13.50;99.90
19906;DHT22;10115;50.906;4.438;2024-02-15T07:48:17;13.60;99.90
19906;DHT22;10115;50.906;4.438;2024-02-15T07:50:43;13.70;99.90
19906;DHT22;10115;50.906;4.438;2024-02-15T07:53:10;13.80;99.90
19906;DHT22;10115;50.906;4.438;2024-02-15T07:55:37;13.80;99.90
19906;DHT22;10115;50.906;4.438;2024-02-15T07:58:04;13.70;99.90
19906;DHT22;10115;50.906;4.438;2024-02-15T08:00:30;13.80;99.90
19906;DHT22;10115;50.906;4.438;2024-02-15T08:02:56;13.80;99.90
19906;DHT22;10115;50.906;4.438;2024-02-15T08:05:23;13.80;99.90
19906;DHT22;10115;50.906;4.438;2024-02-15T08:07:48;14.00;99.90
19906;DHT22;10115;50.906;4.438;2024-02-15T08:10:15;14.10;99.90
19906;DHT22;10115;50.906;4.438;2024-02-15T08:12:44;14.20;99.90
19906;DHT22;10115;50.906;4.438;2024-02-15T08:15:11;14.10;99.90
19906;DHT22;10115;50.906;4.438;2024-02-15T08:17:43;14.00;99.90
19906;DHT22;10115;50.906;4.438;2024-02-15T08:20:12;14.00;99.90
19906;DHT22;10115;50.906;4.438;2024-02-15T08:22:38;14.20;99.90
19906;DHT22;10115;50.906;4.438;2024-02-15T08:25:13;14.20;99.90
19906;DHT22;10115;50.906;4.438;2024-02-15T08:27:42;14.30;99.90
19906;DHT22;10115;50.906;4.438;2024-02-15T08:30:13;14.20;99.90
19906;DHT22;10115;50.906;4.438;2024-02-15T08:32:42;14.30;99.90
19906;DHT22;10115;50.906;4.438;2024-02-15T08:35:09;14.40;99.90
19906;DHT22;10115;50.906;4.438;2024-02-15T08:37:39;14.60;99.90
19906;DHT22;10115;50.906;4.438;2024-02-15T08:40:08;14.80;99.90
19906;DHT22;10115;50.906;4.438;2024-02-15T08:42:42;14.60;99.90
19906;DHT22;10115;50.906;4.438;2024-02-15T08:45:08;14.70;99.90
19906;DHT22;10115;50.906;4.438;2024-02-15T08:47:42;14.70;99.90
19906;DHT22;10115;50.906;4.438;2024-02-15T08:50:09;14.80;99.90
19906;DHT22;10115;50.906;4.438;2024-02-15T08:52:36;14.80;99.90
19906;DHT22;10115;50.906;4.438;2024-02-15T08:55:08;14.50;99.90
19906;DHT22;10115;50.906;4.438;2024-02-15T08:57:35;14.60;99.90
19906;DHT22;10115;50.906;4.438;2024-02-15T09:00:06;14.70;99.90
19906;DHT22;10115;50.906;4.438;2024-02-15T09:02:47;14.70;99.90
19906;DHT22;10115;50.906;4.438;2024-02-15T09:05:14;14.80;99.90
19906;DHT22;10115;50.906;4.438;2024-02-15T09:07:49;14.90;99.90
19906;DHT22;10115;50.906;4.438;2024-02-15T09:10:16;15.10;99.90
19906;DHT22;10115;50.906;4.438;2024-02-15T09:12:43;15.30;99.90
19906;DHT22;10115;50.906;4.438;2024-02-15T09:15:10;15.40;99.90
19906;DHT22;10115;50.906;4.438;2024-02-15T09:17:36;15.30;99.90
19906;DHT22;10115;50.906;4.438;2024-02-15T09:20:07;15.20;99.90
19906;DHT22;10115;50.906;4.438;2024-02-15T09:22:34;15.00;99.90
19906;DHT22;10115;50.906;4.438;2024-02-15T09:25:02;15.00;99.90
19906;DHT22;10115;50.906;4.438;2024-02-15T09:27:28;15.20;99.90
19906;DHT22;10115;50.906;4.438;2024-02-15T09:29:53;15.30;99.90
19906;DHT22;10115;50.906;4.438;2024-02-15T09:32:21;15.30;99.90
19906;DHT22;10115;50.906;4.438;2024-02-15T09:34:48;15.40;99.90
19906;DHT22;10115;50.906;4.438;2024-02-15T09:37:13;15.50;99.90
19906;DHT22;10115;50.906;4.438;2024-02-15T09:39:39;15.60;99.90
19906;DHT22;10115;50.906;4.438;2024-02-15T09:42:05;15.90;99.90
19906;DHT22;10115;50.906;4.438;2024-02-15T09:44:31;15.80;99.90
19906;DHT22;10115;50.906;4.438;2024-02-15T09:47:06;15.80;99.90
19906;DHT22;10115;50.906;4.438;2024-02-15T09:49:38;16.00;99.90
19906;DHT22;10115;50.906;4.438;2024-02-15T09:52:09;16.10;99.90
19906;DHT22;10115;50.906;4.438;2024-02-15T09:54:42;16.30;99.90
19906;DHT22;10115;50.906;4.438;2024-02-15T09:57:11;16.50;99.90
19906;DHT22;10115;50.906;4.438;2024-02-15T09:59:38;16.50;99.90
19906;DHT22;10115;50.906;4.438;2024-02-15T10:02:04;16.30;99.90
19906;DHT22;10115;50.906;4.438;2024-02-15T10:04:34;16.30;99.90
19906;DHT22;10115;50.906;4.438;2024-02-15T10:07:00;16.50;99.90
19906;DHT22;10115;50.906;4.438;2024-02-15T10:09:30;16.60;99.90
19906;DHT22;10115;50.906;4.438;2024-02-15T10:11:57;16.80;99.90
19906;DHT22;10115;50.906;4.438;2024-02-15T10:14:24;16.70;99.90
19906;DHT22;10115;50.906;4.438;2024-02-15T10:16:51;16.70;99.90
19906;DHT22;10115;50.906;4.438;2024-02-15T10:19:18;16.60;99.90
19906;DHT22;10115;50.906;4.438;2024-02-15T10:21:46;16.90;99.90
19906;DHT22;10115;50.906;4.438;2024-02-15T10:24:11;16.90;99.90
19906;DHT22;10115;50.906;4.438;2024-02-15T10:26:37;17.10;99.90
19906;DHT22;10115;50.906;4.438;2024-02-15T10:29:10;16.80;99.90
19906;DHT22;10115;50.906;4.438;2024-02-15T10:31:51;16.80;99.90
19906;DHT22;10115;50.906;4.438;2024-02-15T10:34:17;17.00;99.90
19906;DHT22;10115;50.906;4.438;2024-02-15T10:36:45;17.20;99.90
19906;DHT22;10115;50.906;4.438;2024-02-15T10:41:46;16.60;99.90
19906;DHT22;10115;50.906;4.438;2024-02-15T10:44:15;16.60;99.90
19906;DHT22;10115;50.906;4.438;2024-02-15T10:46:42;16.60;99.90
19906;DHT22;10115;50.906;4.438;2024-02-15T10:49:09;16.90;99.90
19906;DHT22;10115;50.906;4.438;2024-02-15T10:51:36;17.10;99.90
19906;DHT22;10115;50.906;4.438;2024-02-15T10:54:05;17.20;99.90
19906;DHT22;10115;50.906;4.438;2024-02-15T10:56:37;17.10;99.90
19906;DHT22;10115;50.906;4.438;2024-02-15T10:59:18;17.00;99.90
19906;DHT22;10115;50.906;4.438;2024-02-15T11:01:46;17.20;99.90
19906;DHT22;10115;50.906;4.438;2024-02-15T11:04:18;17.30;99.90
19906;DHT22;10115;50.906;4.438;2024-02-15T11:06:47;17.60;99.90
19906;DHT22;10115;50.906;4.438;2024-02-15T11:09:16;17.70;99.90
19906;DHT22;10115;50.906;4.438;2024-02-15T11:11:42;17.50;99.90
19906;DHT22;10115;50.906;4.438;2024-02-15T11:14:29;17.50;99.90
19906;DHT22;10115;50.906;4.438;2024-02-15T11:16:59;17.70;99.90
19906;DHT22;10115;50.906;4.438;2024-02-15T11:22:09;17.70;99.90
19906;DHT22;10115;50.906;4.438;2024-02-15T11:24:36;17.80;99.90
19906;DHT22;10115;50.906;4.438;2024-02-15T11:27:04;17.90;99.90
19906;DHT22;10115;50.906;4.438;2024-02-15T11:29:50;17.90;99.90
19906;DHT22;10115;50.906;4.438;2024-02-15T11:35:06;18.30;99.90
19906;DHT22;10115;50.906;4.438;2024-02-15T11:40:22;18.10;99.90
19906;DHT22;10115;50.906;4.438;2024-02-15T11:43:01;18.00;99.90
19906;DHT22;10115;50.906;4.438;2024-02-15T11:45:30;17.80;99.90
19906;DHT22;10115;50.906;4.438;2024-02-15T11:47:59;18.00;99.90
19906;DHT22;10115;50.906;4.438;2024-02-15T11:50:27;18.20;99.90
19906;DHT22;10115;50.906;4.438;2024-02-15T11:53:02;17.90;99.90
19906;DHT22;10115;50.906;4.438;2024-02-15T11:55:31;18.00;99.90
19906;DHT22;10115;50.906;4.438;2024-02-15T11:58:02;17.90;99.90
19906;DHT22;10115;50.906;4.438;2024-02-15T12:00:48;17.70;99.90
19906;DHT22;10115;50.906;4.438;2024-02-15T12:03:33;17.80;99.90
19906;DHT22;10115;50.906;4.438;2024-02-15T12:06:18;18.00;99.90
19906;DHT22;10115;50.906;4.438;2024-02-15T12:09:03;18.10;99.90
19906;DHT22;10115;50.906;4.438;2024-02-15T12:11:47;18.00;99.90
19906;DHT22;10115;50.906;4.438;2024-02-15T12:14:31;18.00;99.90
19906;DHT22;10115;50.906;4.438;2024-02-15T12:17:15;18.30;99.90
19906;DHT22;10115;50.906;4.438;2024-02-15T12:20:01;18.00;99.90
19906;DHT22;10115;50.906;4.438;2024-02-15T12:22:46;17.80;99.90
19906;DHT22;10115;50.906;4.438;2024-02-15T12:25:16;17.60;99.90
19906;DHT22;10115;50.906;4.438;2024-02-15T12:27:43;17.60;99.90
19906;DHT22;10115;50.906;4.438;2024-02-15T12:30:17;17.60;99.90
19906;DHT22;10115;50.906;4.438;2024-02-15T12:32:46;17.50;99.90
19906;DHT22;10115;50.906;4.438;2024-02-15T12:35:14;17.60;99.90
19906;DHT22;10115;50.906;4.438;2024-02-15T12:37:48;17.90;99.90
19906;DHT22;10115;50.906;4.438;2024-02-15T12:40:20;18.00;99.90
19906;DHT22;10115;50.906;4.438;2024-02-15T12:42:48;18.10;99.90
19906;DHT22;10115;50.906;4.438;2024-02-15T12:45:20;18.30;99.90
19906;DHT22;10115;50.906;4.438;2024-02-15T12:47:53;18.30;99.90
19906;DHT22;10115;50.906;4.438;2024-02-15T12:50:21;18.20;99.90
19906;DHT22;10115;50.906;4.438;2024-02-15T12:52:50;18.30;99.90
19906;DHT22;10115;50.906;4.438;2024-02-15T12:55:18;18.40;99.90
19906;DHT22;10115;50.906;4.438;2024-02-15T12:57:51;18.80;99.90
19906;DHT22;10115;50.906;4.438;2024-02-15T13:00:19;19.00;99.90
19906;DHT22;10115;50.906;4.438;2024-02-15T13:02:47;18.90;99.90
19906;DHT22;10115;50.906;4.438;2024-02-15T13:05:18;19.10;99.90
19906;DHT22;10115;50.906;4.438;2024-02-15T13:07:45;19.10;99.90
19906;DHT22;10115;50.906;4.438;2024-02-15T13:10:11;19.20;99.90
19906;DHT22;10115;50.906;4.438;2024-02-15T13:12:43;19.30;99.90
19906;DHT22;10115;50.906;4.438;2024-02-15T13:15:12;19.30;99.90
19906;DHT22;10115;50.906;4.438;2024-02-15T13:17:49;19.50;99.90
19906;DHT22;10115;50.906;4.438;2024-02-15T13:20:17;19.10;99.90
19906;DHT22;10115;50.906;4.438;2024-02-15T13:22:46;19.20;99.90
19906;DHT22;10115;50.906;4.438;2024-02-15T13:25:13;19.00;99.90
19906;DHT22;10115;50.906;4.438;2024-02-15T13:27:42;18.90;99.90
19906;DHT22;10115;50.906;4.438;2024-02-15T13:30:09;18.80;99.90
19906;DHT22;10115;50.906;4.438;2024-02-15T13:32:38;18.70;99.90
19906;DHT22;10115;50.906;4.438;2024-02-15T13:35:06;18.80;99.90
19906;DHT22;10115;50.906;4.438;2024-02-15T13:37:48;18.90;99.90
19906;DHT22;10115;50.906;4.438;2024-02-15T13:40:15;19.00;99.90
19906;DHT22;10115;50.906;4.438;2024-02-15T13:42:51;19.00;99.90
19906;DHT22;10115;50.906;4.438;2024-02-15T13:47:53;19.20;99.90
19906;DHT22;10115;50.906;4.438;2024-02-15T13:50:19;19.30;99.90
19906;DHT22;10115;50.906;4.438;2024-02-15T13:52:45;19.40;99.90
19906;DHT22;10115;50.906;4.438;2024-02-15T13:55:18;19.20;99.90
19906;DHT22;10115;50.906;4.438;2024-02-15T13:57:45;19.50;99.90
19906;DHT22;10115;50.906;4.438;2024-02-15T14:00:17;19.50;99.90
19906;DHT22;10115;50.906;4.438;2024-02-15T14:02:51;19.60;99.90
19906;DHT22;10115;50.906;4.438;2024-02-15T14:05:21;19.20;99.90
19906;DHT22;10115;50.906;4.438;2024-02-15T14:07:55;19.20;99.90
19906;DHT22;10115;50.906;4.438;2024-02-15T14:10:25;19.30;99.90
19906;DHT22;10115;50.906;4.438;2024-02-15T14:12:53;19.10;99.90
19906;DHT22;10115;50.906;4.438;2024-02-15T14:15:21;19.10;99.90
19906;DHT22;10115;50.906;4.438;2024-02-15T14:17:47;19.10;99.90
19906;DHT22;10115;50.906;4.438;2024-02-15T14:20:13;19.30;99.90
19906;DHT22;10115;50.906;4.438;2024-02-15T14:22:46;19.40;99.90
19906;DHT22;10115;50.906;4.438;2024-02-15T14:25:15;19.50;99.90
19906;DHT22;10115;50.906;4.438;2024-02-15T14:27:41;19.30;99.90
19906;DHT22;10115;50.906;4.438;2024-02-15T14:30:08;19.00;99.90
19906;DHT22;10115;50.906;4.438;2024-02-15T14:32:52;18.70;99.90
19906;DHT22;10115;50.906;4.438;2024-02-15T14:35:34;18.50;99.90
19906;DHT22;10115;50.906;4.438;2024-02-15T14:38:05;18.50;99.90
19906;DHT22;10115;50.906;4.438;2024-02-15T14:40:36;18.30;99.90
19906;DHT22;10115;50.906;4.438;2024-02-15T14:43:03;18.40;99.90
19906;DHT22;10115;50.906;4.438;2024-02-15T14:45:31;18.20;99.90
19906;DHT22;10115;50.906;4.438;2024-02-15T14:47:58;18.20;99.90
19906;DHT22;10115;50.906;4.438;2024-02-15T14:50:24;18.40;99.90
19906;DHT22;10115;50.906;4.438;2024-02-15T14:52:51;18.40;99.90
19906;DHT22;10115;50.906;4.438;2024-02-15T14:55:21;18.30;99.90
19906;DHT22;10115;50.906;4.438;2024-02-15T14:57:48;18.40;99.90
19906;DHT22;10115;50.906;4.438;2024-02-15T15:00:14;18.40;99.90
19906;DHT22;10115;50.906;4.438;2024-02-15T15:02:46;18.20;99.90
19906;DHT22;10115;50.906;4.438;2024-02-15T15:05:15;18.10;99.90
19906;DHT22;10115;50.906;4.438;2024-02-15T15:07:59;18.00;99.90
19906;DHT22;10115;50.906;4.438;2024-02-15T15:10:47;17.90;99.90
19906;DHT22;10115;50.906;4.438;2024-02-15T15:13:33;17.90;99.90
19906;DHT22;10115;50.906;4.438;2024-02-15T15:15:59;17.70;99.90
19906;DHT22;10115;50.906;4.438;2024-02-15T15:18:25;17.70;99.90
19906;DHT22;10115;50.906;4.438;2024-02-15T15:20:51;17.70;99.90
19906;DHT22;10115;50.906;4.438;2024-02-15T15:23:17;17.70;99.90
19906;DHT22;10115;50.906;4.438;2024-02-15T15:25:43;17.60;99.90
19906;DHT22;10115;50.906;4.438;2024-02-15T15:28:08;17.70;99.90
19906;DHT22;10115;50.906;4.438;2024-02-15T15:30:34;17.80;99.90
19906;DHT22;10115;50.906;4.438;2024-02-15T15:33:01;17.80;99.90
19906;DHT22;10115;50.906;4.438;2024-02-15T15:35:27;18.00;99.90
19906;DHT22;10115;50.906;4.438;2024-02-15T15:37:53;18.50;99.90
19906;DHT22;10115;50.906;4.438;2024-02-15T15:40:19;18.70;99.90
19906;DHT22;10115;50.906;4.438;2024-02-15T15:42:45;18.50;99.90
19906;DHT22;10115;50.906;4.438;2024-02-15T15:45:11;18.40;99.90
19906;DHT22;10115;50.906;4.438;2024-02-15T15:47:38;18.20;99.90
19906;DHT22;10115;50.906;4.438;2024-02-15T15:50:05;18.10;99.90
19906;DHT22;10115;50.906;4.438;2024-02-15T15:52:32;18.00;99.90
19906;DHT22;10115;50.906;4.438;2024-02-15T15:54:58;17.70;99.90
19906;DHT22;10115;50.906;4.438;2024-02-15T15:57:24;17.60;99.90